createdAt,value
2019-04-05T00:00:37.168Z,7.60
2019-04-05T00:05:44.010Z,7.60
2019-04-05T00:10:51.793Z,7.70
2019-04-05T00:15:58.122Z,7.90
2019-04-05T00:21:04.493Z,7.80
2019-04-05T00:26:12.019Z,7.70
2019-04-05T00:31:19.453Z,7.70
2019-04-05T00:36:25.304Z,7.60
2019-04-05T00:41:33.054Z,7.50
2019-04-05T00:46:39.930Z,7.70
2019-04-05T00:51:46.201Z,7.70
2019-04-05T00:56:54.109Z,7.50
2019-04-05T01:02:13.115Z,7.90
2019-04-05T01:07:19.459Z,7.80
2019-04-05T01:12:27.624Z,8.00
2019-04-05T01:17:34.832Z,8.10
2019-04-05T01:22:44.620Z,7.90
2019-04-05T01:27:51.579Z,8.00
2019-04-05T01:32:58.052Z,8.00
2019-04-05T01:38:04.481Z,8.10
2019-04-05T01:43:11.085Z,8.10
2019-04-05T01:48:17.329Z,8.20
2019-04-05T01:53:23.601Z,8.10
2019-04-05T01:58:30.277Z,8.30
2019-04-05T02:03:35.978Z,8.10
2019-04-05T02:08:42.482Z,8.00
2019-04-05T02:13:49.080Z,8.10
2019-04-05T02:18:55.635Z,8.00
2019-04-05T02:24:02.438Z,8.20
2019-04-05T02:29:09.099Z,8.10
2019-04-05T02:34:15.700Z,7.90
2019-04-05T02:39:21.403Z,7.90
2019-04-05T02:44:29.532Z,7.80
2019-04-05T02:49:38.955Z,8.00
2019-04-05T02:54:47.093Z,8.10
2019-04-05T02:59:54.668Z,8.10
2019-04-05T03:05:01.518Z,8.20
2019-04-05T03:10:08.275Z,8.10
2019-04-05T03:15:15.219Z,8.20
2019-04-05T03:20:21.210Z,8.30
2019-04-05T03:25:27.675Z,8.20
2019-04-05T03:30:33.455Z,8.30
2019-04-05T03:35:39.977Z,8.40
2019-04-05T03:40:47.454Z,8.40
2019-04-05T03:45:53.990Z,8.50
2019-04-05T03:51:00.820Z,8.50
2019-04-05T03:56:07.680Z,8.60
2019-04-05T04:01:15.614Z,8.40
2019-04-05T04:06:22.961Z,8.40
2019-04-05T04:11:29.934Z,8.40
2019-04-05T04:16:37.271Z,8.30
2019-04-05T04:22:05.351Z,8.40
2019-04-05T04:27:12.495Z,8.20
2019-04-05T04:32:19.807Z,8.10
2019-04-05T04:37:26.838Z,8.10
2019-04-05T04:42:33.426Z,8.10
2019-04-05T04:47:41.424Z,8.30
2019-04-05T04:52:48.398Z,8.30
2019-04-05T04:57:54.506Z,8.20
2019-04-05T05:03:01.592Z,8.00
2019-04-05T05:08:08.288Z,8.00
2019-04-05T05:13:14.491Z,8.10
2019-04-05T05:18:20.728Z,8.20
2019-04-05T05:23:27.724Z,8.30
2019-04-05T05:28:33.653Z,8.30
2019-04-05T05:33:42.059Z,8.40
2019-04-05T05:38:50.299Z,8.30
2019-04-05T05:43:57.142Z,8.60
2019-04-05T05:49:05.445Z,8.60
2019-04-05T05:54:11.939Z,8.70
2019-04-05T05:59:18.936Z,8.60
2019-04-05T06:04:24.694Z,8.50
2019-04-05T06:09:30.367Z,8.50
2019-04-05T06:14:37.458Z,8.60
2019-04-05T06:19:44.074Z,8.40
2019-04-05T06:24:50.897Z,8.40
2019-04-05T06:29:58.499Z,8.60
2019-04-05T06:35:07.682Z,8.80
2019-04-05T06:40:15.787Z,9.00
2019-04-05T06:45:22.327Z,8.80
2019-04-05T06:50:30.149Z,8.90
2019-04-05T06:55:49.264Z,9.00
2019-04-05T07:00:57.507Z,8.80
2019-04-05T07:06:05.538Z,8.50
2019-04-05T07:11:12.243Z,8.80
2019-04-05T07:16:21.098Z,8.90
2019-04-05T07:21:27.701Z,8.80
2019-04-05T07:26:33.461Z,8.90
2019-04-05T07:31:38.999Z,8.90
2019-04-05T07:36:45.666Z,9.00
2019-04-05T07:41:53.162Z,9.30
2019-04-05T07:46:59.564Z,9.10
2019-04-05T07:52:05.957Z,9.20
2019-04-05T07:57:12.620Z,9.30
2019-04-05T08:02:19.956Z,9.50
2019-04-05T08:07:30.726Z,9.60
2019-04-05T08:12:40.239Z,9.60
2019-04-05T08:17:46.906Z,9.70
2019-04-05T08:22:54.418Z,9.70
2019-04-05T08:28:01.060Z,9.90
2019-04-05T08:33:07.663Z,9.80
2019-04-05T08:38:13.918Z,9.70
2019-04-05T08:43:20.521Z,9.80
2019-04-05T08:48:27.198Z,10.10
2019-04-05T08:53:33.058Z,10.30
2019-04-05T08:58:40.586Z,9.90
2019-04-05T09:03:46.929Z,10.10
2019-04-05T09:08:53.218Z,10.60
2019-04-05T09:13:59.939Z,10.50
2019-04-05T09:19:06.653Z,10.70
2019-04-05T09:24:13.519Z,10.80
2019-04-05T09:29:19.323Z,11.00
2019-04-05T09:34:25.136Z,10.90
2019-04-05T09:39:30.929Z,11.40
2019-04-05T09:44:38.953Z,11.40
2019-04-05T09:49:45.651Z,11.00
2019-04-05T09:54:52.393Z,11.50
2019-04-05T10:00:00.233Z,11.70
2019-04-05T10:05:08.185Z,12.20
2019-04-05T10:10:15.127Z,12.60
2019-04-05T10:15:22.141Z,12.60
2019-04-05T10:20:47.395Z,12.70
2019-04-05T10:25:53.856Z,12.40
2019-04-05T10:31:00.245Z,12.40
2019-04-05T10:36:07.927Z,12.50
2019-04-05T10:41:16.413Z,12.70
2019-04-05T10:46:22.530Z,12.80
2019-04-05T10:51:28.669Z,13.00
2019-04-05T10:56:35.465Z,13.30
2019-04-05T11:01:42.518Z,13.60
2019-04-05T11:06:50.461Z,13.30
2019-04-05T11:11:56.983Z,13.70
2019-04-05T11:17:05.124Z,14.30
2019-04-05T11:22:13.304Z,14.20
2019-04-05T11:27:20.258Z,14.60
2019-04-05T11:32:27.971Z,14.90
2019-04-05T11:37:34.139Z,14.80
2019-04-05T11:42:43.230Z,15.00
2019-04-05T11:47:53.629Z,15.20
2019-04-05T11:53:00.649Z,15.10
2019-04-05T11:58:07.927Z,15.20
2019-04-05T12:03:16.238Z,15.60
2019-04-05T12:08:24.573Z,15.60
2019-04-05T12:13:32.945Z,15.20
2019-04-05T12:18:38.754Z,15.10
2019-04-05T12:23:45.194Z,15.40
2019-04-05T12:28:51.985Z,14.90
2019-04-05T12:33:59.868Z,14.60
2019-04-05T12:39:08.568Z,15.10
2019-04-05T12:44:16.502Z,15.20
2019-04-05T12:49:22.527Z,15.70
2019-04-05T12:54:28.499Z,15.00
2019-04-05T12:59:34.355Z,14.30
2019-04-05T13:04:40.853Z,14.40
2019-04-05T13:09:47.345Z,14.20
2019-04-05T13:14:59.692Z,14.60
2019-04-05T13:20:02.230Z,14.40
2019-04-05T13:25:11.081Z,14.50
2019-04-05T13:30:19.273Z,14.80
2019-04-05T13:35:26.163Z,15.30
2019-04-05T13:40:32.184Z,15.60
2019-04-05T13:45:40.300Z,15.30
2019-04-05T13:50:48.123Z,15.90
2019-04-05T13:55:54.942Z,15.60
2019-04-05T14:01:01.686Z,15.90
2019-04-05T14:06:10.625Z,15.60
2019-04-05T14:11:16.226Z,15.60
2019-04-05T14:16:23.619Z,16.00
2019-04-05T14:21:39.793Z,16.00
2019-04-05T14:26:37.605Z,16.10
2019-04-05T14:31:45.946Z,16.00
2019-04-05T14:36:53.025Z,15.90
2019-04-05T14:42:09.452Z,15.50
2019-04-05T14:47:11.007Z,15.50
2019-04-05T14:52:18.652Z,15.60
2019-04-05T14:57:26.653Z,15.50
2019-04-05T15:02:34.077Z,15.50
2019-04-05T15:07:40.834Z,15.00
2019-04-05T15:12:47.745Z,15.00
2019-04-05T15:17:55.918Z,14.90
2019-04-05T15:23:03.524Z,15.00
2019-04-05T15:28:12.150Z,14.50
2019-04-05T15:33:20.167Z,14.60
2019-04-05T15:38:31.319Z,14.40
2019-04-05T15:43:35.219Z,14.20
2019-04-05T15:48:42.039Z,14.20
2019-04-05T15:53:50.228Z,13.90
2019-04-05T15:58:58.531Z,13.80
2019-04-05T16:04:05.264Z,13.80
2019-04-05T16:09:14.422Z,13.80
2019-04-05T16:14:21.544Z,13.60
2019-04-05T16:19:27.401Z,13.50
2019-04-05T16:24:33.347Z,13.60
2019-04-05T16:29:41.677Z,13.50
2019-04-05T16:34:50.134Z,13.70
2019-04-05T16:39:57.876Z,13.60
2019-04-05T16:45:11.348Z,13.30
2019-04-05T16:50:21.377Z,13.20
2019-04-05T16:55:28.334Z,13.20
2019-04-05T17:00:34.292Z,13.00
2019-04-05T17:05:42.659Z,13.00
2019-04-05T17:10:49.510Z,12.90
2019-04-05T17:15:57.448Z,12.90
2019-04-05T17:21:05.356Z,13.10
2019-04-05T17:26:12.027Z,13.10
2019-04-05T17:31:20.662Z,13.00
2019-04-05T17:36:27.983Z,13.00
2019-04-05T17:41:37.268Z,12.90
2019-04-05T17:46:45.344Z,12.80
2019-04-05T17:51:53.512Z,12.70
2019-04-05T17:57:01.927Z,12.60
2019-04-05T18:02:10.780Z,12.40
2019-04-05T18:07:19.339Z,12.30
2019-04-05T18:12:26.145Z,12.10
2019-04-05T18:17:34.921Z,12.00
2019-04-05T18:22:42.987Z,11.90
2019-04-05T18:27:50.732Z,11.80
2019-04-05T18:32:58.849Z,11.60
2019-04-05T18:38:06.166Z,11.40
2019-04-05T18:43:13.269Z,11.30
2019-04-05T18:48:20.507Z,11.20
2019-04-05T18:53:37.471Z,11.10
2019-04-05T18:58:37.261Z,10.90
2019-04-05T19:03:46.355Z,10.70
2019-04-05T19:08:54.906Z,10.60
2019-04-05T19:14:03.472Z,10.50
2019-04-05T19:19:13.223Z,10.40
2019-04-05T19:24:20.356Z,10.30
2019-04-05T19:29:28.999Z,10.20
2019-04-05T19:50:06.663Z,10.00
2019-04-05T19:55:14.983Z,9.90
2019-04-05T20:00:22.153Z,9.90
2019-04-05T20:05:30.739Z,9.70
2019-04-05T20:10:40.038Z,9.70
2019-04-05T20:15:49.167Z,9.50
2019-04-05T20:20:56.926Z,9.50
2019-04-05T20:26:03.482Z,9.30
2019-04-05T20:31:11.557Z,9.30
2019-04-05T20:36:19.581Z,9.20
2019-04-05T20:41:27.421Z,9.10
2019-04-05T20:46:33.491Z,8.90
2019-04-05T20:51:40.737Z,8.80
2019-04-05T20:56:49.232Z,8.70
2019-04-05T21:01:57.230Z,8.60
2019-04-05T21:07:04.054Z,8.50
2019-04-05T21:12:11.940Z,8.40
2019-04-05T21:17:19.585Z,8.30
2019-04-05T21:22:27.434Z,8.20
2019-04-05T21:27:33.338Z,8.10
2019-04-05T21:32:39.704Z,8.00
2019-04-05T21:37:46.023Z,8.00
2019-04-05T21:42:52.549Z,7.90
2019-04-05T21:48:00.790Z,7.80
2019-04-05T21:53:08.733Z,7.70
2019-04-05T21:58:15.636Z,7.60
2019-04-05T22:03:23.513Z,7.60
2019-04-05T22:08:30.371Z,7.50
2019-04-05T22:13:38.226Z,7.30
2019-04-05T22:18:45.158Z,7.20
2019-04-05T22:23:52.087Z,7.10
2019-04-05T22:28:58.024Z,7.10
2019-04-05T22:34:05.716Z,7.00
2019-04-05T22:39:13.526Z,6.90
2019-04-05T22:44:19.533Z,6.80
2019-04-05T23:08:33.482Z,6.10
2019-04-05T23:13:41.006Z,6.00
2019-04-05T23:18:49.059Z,5.80
2019-04-05T23:23:56.728Z,5.70
2019-04-05T23:29:04.599Z,5.80
2019-04-05T23:34:11.374Z,5.70
2019-04-05T23:39:19.278Z,5.70
2019-04-05T23:44:26.288Z,5.70
2019-04-05T23:49:32.408Z,5.70
2019-04-05T23:54:39.346Z,5.70
2019-04-05T23:59:47.469Z,5.70
